CTU weather

Chengdu Shuangliu International Airport
Chengdu, Sichuan Province, China

Public forecast

Using degrees Celsius for public forecast. Weather courtesy of forecast.io.

Current aviation weather report (METAR) for Chengdu Shuangliu International Airport

Retrieved 2019/10/21 13:00 UTC (39 minutes ago):

ZUUU 211300Z 36002MPS 330V040 5000 -SHRA BR FEW007 BKN033 17/16 Q1014 NOSIG

Aviation forecast (TAF) for Chengdu Shuangliu International Airport

Retrieved 2019/10/21 12:00 UTC (2 hours ago):

TAF ZUUU 210808Z 2112/2212 02003MPS 3500 BR SCT040 TX20/2207Z TN16/2122Z TEMPO 2116/2122 -SHRA FEW030CB BKN040